Loveland, OH (45140)

5:06 PM EST on December 18, 2014 (GMT -0500)
Miami Township | Change Station
CLOSE
Current Station
Personal Weather Station
Location: Loveland, OH
Elevation: 853 ft
Nearby Weather Stations

Elev 853 ft 39.21 °N, 84.22 °W | Updated 9 seconds ago

Overcast
Overcast
28.0 °F
Feels Like 28 °F
N
0.0
Wind Variable Wind from NE
Gusts 0.7 mph

Today
High -- | Low -- °F
--% Chance of Precip.
Yesterday
High -- | Low -- °F
Precip. -- in
7:51 AM 5:15 PM
Waning Crescent, 12% visible
Pressure 30.21 in
Visibility 10.0 miles
Clouds Scattered Clouds 2500 ft
Scattered Clouds 7000 ft
Overcast 9000 ft
Windchill 28 °F
Dew Point 17 °F
Humidity 63%
Rainfall 0.00 in
Snow Depth Not available.
UV 0 out of 12
Pollen .10 out of 12
Air Quality Not available.
Flu Activity Not available.
METAR KI69 182156Z AUTO 00000KT 10SM SCT025 SCT070 OVC090 00/M05 A3021 RMK AO1

More Conditions Fewer Conditions

Pressure 30.21 in
Visibility 10.0 miles
Clouds Scattered Clouds 2500 ft
Scattered Clouds 7000 ft
Overcast 9000 ft
Windchill 28 °F
Dew Point 17 °F
Humidity 63%
Rainfall 0.00 in
Snow Depth Not available.
UV 0 out of 12
Pollen .10 out of 12
Air Quality Not available.
Flu Activity Not available.
METAR KI69 182156Z AUTO 00000KT 10SM SCT025 SCT070 OVC090 00/M05 A3021 RMK AO1

More Conditions Fewer Conditions

10-Day Weather Forecast

Almanac

Astronomy

Dec. 18, 2014 Rise Set
Actual Time
Civil Twilight
Nautical Twilight
Astronomical Twilight
Moon
Length of Visible Light
Length of Day
Tomorrow will be .
, % of the Moon is Illuminated

Today's Extremes

State Highs State Lows

Community

WunderPhotos

Upload Photos

1,779,006 photos uploaded!

WunderBlogs® & News

Nearby

Air Quality

  Air Quality AQ Index Pollutant
Not available.

Snow Depth

Station Depth Elevation

Earthquake Activity

City Distance Mag. Time & Date
Minimum magnitude displayed is 2.5.

Coastal Water Temperatures

Place Temperature

Nearby Weather Stations